Time;durP1;ratioP1;P1;durP2;ratioP2;P2;SDS_P1;SDS_P2;PMS_P1;PMS_P2;Temp;Humidity;BMP_temperature;BMP_pressure;BME280_temperature;BME280_humidity;BME280_pressure;Samples;Min_cycle;Max_cycle;Signal;HPM_P1;HPM_P2
2022/05/23 00:02:06;;;;;;;2.85;1.17;;;16.30;60.60;;;;;;5074082;28;20073;-74
2022/05/23 00:04:31;;;;;;;1.85;1.08;;;16.40;60.50;;;;;;5055851;28;20554;-74
2022/05/23 00:06:58;;;;;;;1.73;0.90;;;16.40;60.10;;;;;;5073793;28;20025;-74
2022/05/23 00:09:24;;;;;;;3.72;1.85;;;16.40;59.70;;;;;;5073786;28;20081;-74
2022/05/23 00:11:49;;;;;;;4.40;1.55;;;16.30;60.50;;;;;;5073663;28;20016;-74
2022/05/23 00:14:16;;;;;;;1.45;1.10;;;16.20;61.90;;;;;;5073611;28;20476;-74
2022/05/23 00:16:44;;;;;;;1.80;1.23;;;16.10;63.00;;;;;;5073675;28;20095;-74
2022/05/23 00:19:11;;;;;;;3.78;1.42;;;16.00;64.00;;;;;;5073705;28;20017;-75
2022/05/23 00:21:40;;;;;;;3.40;1.33;;;15.80;64.60;;;;;;5073483;28;20049;-74
2022/05/23 00:24:08;;;;;;;4.57;1.30;;;15.70;64.80;;;;;;5073557;28;20535;-74
2022/05/23 00:26:35;;;;;;;2.83;1.35;;;15.70;64.70;;;;;;5073530;28;20024;-74
2022/05/23 00:29:01;;;;;;;2.08;1.23;;;15.80;64.70;;;;;;5073082;28;20500;-74
2022/05/23 00:31:27;;;;;;;2.60;1.10;;;15.90;64.70;;;;;;5073333;28;20021;-74
2022/05/23 00:36:37;;;;;;;0.75;0.70;;;16.00;64.40;;;;;;5073420;28;20039;-74
2022/05/23 00:39:03;;;;;;;1.15;0.90;;;16.00;64.20;;;;;;5073303;28;20024;-75
2022/05/23 00:44:29;;;;;;;3.45;0.90;;;15.90;64.00;;;;;;5073335;28;20116;-75
2022/05/23 00:46:58;;;;;;;1.75;1.25;;;15.90;63.80;;;;;;5073299;28;20020;-74
2022/05/23 00:49:27;;;;;;;0.95;0.90;;;15.90;63.60;;;;;;5055215;28;20025;-74
2022/05/23 00:51:54;;;;;;;1.58;0.90;;;16.00;63.40;;;;;;5072797;28;20021;-74
2022/05/23 00:54:21;;;;;;;2.83;1.17;;;16.00;63.40;;;;;;5073191;28;20078;-73
2022/05/23 00:56:50;;;;;;;2.72;1.35;;;16.00;63.50;;;;;;5073099;28;20035;-74
2022/05/23 00:59:22;;;;;;;2.00;1.13;;;15.90;63.30;;;;;;5073151;28;20100;-74
2022/05/23 01:01:48;;;;;;;2.40;1.10;;;15.80;63.30;;;;;;5073023;28;20476;-74
2022/05/23 01:04:14;;;;;;;2.85;1.27;;;15.80;63.30;;;;;;5072957;28;20068;-75
2022/05/23 01:06:39;;;;;;;2.75;1.30;;;15.80;63.50;;;;;;5073010;28;20457;-74
2022/05/23 01:09:05;;;;;;;1.60;0.90;;;15.70;63.70;;;;;;5073133;28;20035;-74
2022/05/23 01:11:30;;;;;;;2.30;0.93;;;15.80;63.50;;;;;;5054980;28;20046;-73
2022/05/23 01:13:56;;;;;;;1.35;1.08;;;15.80;63.40;;;;;;5072995;28;20485;-73
2022/05/23 01:16:24;;;;;;;3.90;1.27;;;15.80;63.20;;;;;;5072992;28;20043;-74
2022/05/23 01:18:50;;;;;;;4.78;1.27;;;15.80;62.90;;;;;;5072940;28;20042;-75
2022/05/23 01:21:52;;;;;;;4.47;1.20;;;15.80;62.80;;;;;;5072727;28;20029;-73
2022/05/23 01:24:48;;;;;;;2.03;1.23;;;15.70;62.90;;;;;;5059299;28;20041;-73
2022/05/23 01:27:14;;;;;;;3.55;1.30;;;15.60;63.20;;;;;;5072896;28;20036;-73
2022/05/23 01:29:44;;;;;;;2.58;1.10;;;15.70;63.40;;;;;;5072990;28;20145;-73
2022/05/23 01:32:10;;;;;;;4.55;1.38;;;15.70;63.40;;;;;;5072855;28;20067;-73
2022/05/23 01:34:36;;;;;;;1.70;1.13;;;15.70;62.40;;;;;;5072796;28;20052;-73
2022/05/23 01:37:02;;;;;;;2.65;1.20;;;15.70;62.20;;;;;;5072895;28;20132;-73
2022/05/23 01:39:28;;;;;;;2.53;1.15;;;15.70;62.40;;;;;;5072685;28;20035;-73
2022/05/23 01:41:53;;;;;;;2.47;1.08;;;15.70;62.40;;;;;;5072649;28;20103;-73
2022/05/23 01:44:19;;;;;;;2.95;1.15;;;15.80;62.70;;;;;;5072592;28;20500;-73
2022/05/23 01:46:44;;;;;;;3.65;1.48;;;15.80;62.30;;;;;;5054545;28;20021;-73
2022/05/23 01:49:10;;;;;;;2.60;0.90;;;15.90;61.60;;;;;;5072653;28;20024;-74
2022/05/23 01:51:36;;;;;;;4.07;1.60;;;15.90;60.50;;;;;;5072662;28;20033;-73
2022/05/23 01:54:01;;;;;;;2.08;1.05;;;15.90;60.50;;;;;;5072541;28;20173;-73
2022/05/23 01:56:27;;;;;;;0.90;0.80;;;15.90;60.40;;;;;;5072448;28;20016;-73
2022/05/23 02:01:37;;;;;;;1.63;1.15;;;15.90;59.70;;;;;;5072515;28;20046;-73
2022/05/23 02:04:03;;;;;;;2.30;1.40;;;16.00;59.30;;;;;;5072467;28;20572;-73
2022/05/23 02:06:29;;;;;;;4.22;1.30;;;16.00;58.70;;;;;;5076214;28;20059;-74
2022/05/23 02:08:54;;;;;;;3.75;1.30;;;16.10;58.30;;;;;;5058176;28;20107;-73
2022/05/23 02:11:20;;;;;;;3.78;1.27;;;16.10;57.80;;;;;;5076082;28;20104;-73
2022/05/23 02:13:46;;;;;;;4.15;1.05;;;16.20;57.30;;;;;;5076043;28;20108;-73
2022/05/23 02:16:12;;;;;;;1.77;1.00;;;16.30;57.00;;;;;;5075986;28;20066;-73
2022/05/23 02:18:38;;;;;;;4.50;1.10;;;16.30;56.70;;;;;;5075974;28;20099;-73
2022/05/23 02:21:03;;;;;;;2.83;1.17;;;16.40;56.60;;;;;;5075823;28;20025;-73
2022/05/23 02:23:29;;;;;;;4.20;1.42;;;16.40;56.10;;;;;;5075721;28;20045;-74
2022/05/23 02:25:54;;;;;;;2.80;1.40;;;16.50;55.80;;;;;;5075854;28;20453;-74
2022/05/23 02:28:20;;;;;;;2.70;1.20;;;16.50;55.50;;;;;;5075803;28;20035;-73
2022/05/23 02:30:47;;;;;;;2.42;1.27;;;16.60;55.30;;;;;;5075832;28;20062;-74
2022/05/23 02:33:14;;;;;;;3.58;1.42;;;16.70;55.30;;;;;;5075652;28;20112;-74
2022/05/23 02:35:40;;;;;;;1.92;1.15;;;16.70;55.10;;;;;;5075650;28;20051;-75
2022/05/23 02:38:06;;;;;;;4.78;1.63;;;16.80;55.00;;;;;;5075668;28;20056;-75
2022/05/23 02:40:31;;;;;;;2.13;1.30;;;16.80;55.00;;;;;;5075561;28;20063;-74
2022/05/23 02:42:57;;;;;;;4.85;1.40;;;16.80;55.10;;;;;;5075420;28;20063;-75
2022/05/23 02:45:23;;;;;;;2.28;1.48;;;16.90;55.30;;;;;;5075460;28;20469;-74
2022/05/23 02:47:49;;;;;;;2.13;1.48;;;16.90;55.30;;;;;;5075363;28;20028;-74
2022/05/23 02:50:15;;;;;;;6.40;1.70;;;16.90;55.20;;;;;;5075420;28;20028;-74
2022/05/23 02:52:42;;;;;;;3.95;1.30;;;17.00;55.40;;;;;;5075439;28;20358;-75
2022/05/23 02:55:08;;;;;;;3.85;1.58;;;16.90;55.50;;;;;;5074142;28;20109;-74
2022/05/23 02:57:34;;;;;;;2.60;1.17;;;17.00;55.40;;;;;;5075238;28;20097;-74
2022/05/23 03:00:00;;;;;;;3.40;1.42;;;16.90;55.50;;;;;;5075291;28;20024;-74
2022/05/23 03:05:10;;;;;;;6.28;1.55;;;17.00;55.70;;;;;;5075431;28;20116;-74
2022/05/23 03:07:35;;;;;;;3.80;1.63;;;17.00;55.30;;;;;;5057101;28;20115;-74
2022/05/23 03:10:02;;;;;;;2.78;1.20;;;17.10;55.50;;;;;;5074974;28;20472;-74
2022/05/23 03:12:29;;;;;;;6.00;1.50;;;17.10;55.40;;;;;;5074931;28;20358;-74
2022/05/23 03:14:55;;;;;;;3.75;1.80;;;17.10;55.40;;;;;;5074578;28;20036;-74
2022/05/23 03:17:21;;;;;;;4.18;1.95;;;17.20;55.30;;;;;;5074876;28;20069;-74
2022/05/23 03:19:46;;;;;;;1.70;1.25;;;17.20;55.10;;;;;;5074651;28;20493;-74
2022/05/23 03:27:43;;;;;;;8.23;1.73;;;17.30;54.50;;;;;;5095024;28;20116;-74
2022/05/23 03:30:10;;;;;;;2.80;1.50;;;17.40;54.30;;;;;;5076699;28;20024;-74
2022/05/23 03:32:36;;;;;;;2.67;1.40;;;17.40;54.70;;;;;;5096081;28;20081;-73
2022/05/23 03:35:03;;;;;;;5.03;1.42;;;17.50;55.00;;;;;;5095424;28;20411;-78
2022/05/23 03:37:28;;;;;;;7.70;2.05;;;17.60;58.10;;;;;;5095749;28;20020;-79
2022/05/23 03:39:54;;;;;;;2.67;1.60;;;17.70;58.70;;;;;;5095182;28;20028;-80
2022/05/23 03:42:20;;;;;;;4.88;1.70;;;17.80;55.60;;;;;;5094488;28;20435;-77
2022/05/23 03:44:45;;;;;;;2.65;1.63;;;18.00;57.60;;;;;;5094627;28;20032;-77
2022/05/23 03:47:11;;;;;;;3.15;1.50;;;18.10;56.00;;;;;;5076294;28;20107;-78
2022/05/23 03:49:37;;;;;;;2.38;1.75;;;18.20;55.80;;;;;;5094592;28;20179;-79
2022/05/23 03:52:03;;;;;;;7.88;2.13;;;18.40;54.80;;;;;;5094561;28;20114;-84
2022/05/23 03:54:29;;;;;;;4.00;1.45;;;18.30;54.10;;;;;;5079270;28;20051;-80
2022/05/23 03:57:03;;;;;;;2.67;1.45;;;18.40;53.80;;;;;;5099076;28;20024;-81
2022/05/23 03:59:29;;;;;;;4.38;1.83;;;18.40;54.70;;;;;;5095046;28;20089;-81
2022/05/23 04:01:57;;;;;;;2.45;1.65;;;18.50;54.60;;;;;;5094762;28;20031;-83
2022/05/23 04:04:27;;;;;;;2.33;1.52;;;18.50;54.90;;;;;;5094580;28;20038;-83
2022/05/23 04:06:58;;;;;;;5.78;1.77;;;18.40;55.10;;;;;;5094486;28;20106;-79
2022/05/23 04:09:23;;;;;;;3.08;1.83;;;18.40;55.70;;;;;;5094604;28;20028;-79
2022/05/23 04:11:49;;;;;;;3.90;1.67;;;18.40;56.20;;;;;;5094053;28;20123;-78
2022/05/23 04:14:14;;;;;;;4.45;1.55;;;18.40;56.10;;;;;;5093767;28;20024;-80
2022/05/23 04:16:45;;;;;;;5.53;1.80;;;18.50;55.80;;;;;;5075589;28;20016;-79
2022/05/23 04:19:11;;;;;;;4.57;1.70;;;18.50;56.00;;;;;;5094032;28;20051;-79
2022/05/23 04:21:40;;;;;;;2.13;1.83;;;18.50;55.60;;;;;;5093740;28;20083;-77
2022/05/23 04:24:06;;;;;;;3.00;1.95;;;18.50;55.40;;;;;;5093956;28;20036;-78
2022/05/23 04:26:31;;;;;;;5.25;2.35;;;18.50;55.90;;;;;;5075294;28;20447;-78
2022/05/23 04:28:57;;;;;;;4.90;2.00;;;18.40;55.90;;;;;;5093459;28;20107;-78
2022/05/23 04:31:23;;;;;;;4.15;2.20;;;18.40;56.70;;;;;;5093758;28;20028;-79
2022/05/23 04:36:32;;;;;;;5.80;2.08;;;18.30;57.20;;;;;;5093664;28;20541;-78
2022/05/23 04:38:58;;;;;;;2.53;1.60;;;18.40;57.40;;;;;;5093423;28;20040;-78
2022/05/23 04:41:24;;;;;;;4.65;2.05;;;18.30;57.30;;;;;;5093485;28;20069;-79
2022/05/23 04:43:49;;;;;;;2.78;1.98;;;18.30;57.50;;;;;;5093418;28;20080;-81
2022/05/23 04:46:15;;;;;;;2.97;2.00;;;18.40;57.40;;;;;;5093443;28;20028;-80
2022/05/23 04:51:25;;;;;;;2.13;1.63;;;18.30;57.50;;;;;;5093901;28;20051;-79
2022/05/23 04:53:53;;;;;;;2.63;1.90;;;18.30;57.50;;;;;;5093528;28;20476;-80
2022/05/23 04:56:20;;;;;;;5.03;2.08;;;18.30;58.00;;;;;;5093508;28;20027;-75
2022/05/23 04:58:46;;;;;;;6.82;2.75;;;18.30;58.60;;;;;;5093252;28;20023;-74
2022/05/23 05:01:12;;;;;;;4.15;2.08;;;18.10;58.20;;;;;;5093293;28;20028;-74
2022/05/23 05:03:37;;;;;;;2.42;1.75;;;18.00;58.80;;;;;;5093193;28;20040;-73
2022/05/23 05:06:04;;;;;;;4.40;2.05;;;17.90;59.10;;;;;;5093109;28;20380;-74
2022/05/23 05:08:30;;;;;;;4.15;2.08;;;17.80;59.50;;;;;;5093143;28;20095;-73
2022/05/23 05:10:57;;;;;;;3.25;1.63;;;17.80;59.60;;;;;;5093120;28;20027;-73
2022/05/23 05:13:25;;;;;;;7.78;2.15;;;17.80;60.00;;;;;;5092805;28;20070;-73
2022/05/23 05:15:51;;;;;;;6.05;2.30;;;17.80;60.30;;;;;;5092981;28;20028;-73
2022/05/23 05:18:16;;;;;;;2.75;2.10;;;17.80;60.70;;;;;;5092838;28;20035;-73
2022/05/23 05:20:42;;;;;;;5.45;2.35;;;17.80;60.90;;;;;;5092810;28;20027;-73
2022/05/23 05:23:07;;;;;;;3.65;2.08;;;17.80;60.70;;;;;;5092640;28;20071;-73
2022/05/23 05:25:34;;;;;;;3.22;1.90;;;17.80;61.00;;;;;;5093040;28;20047;-74
2022/05/23 05:28:00;;;;;;;2.90;1.83;;;17.90;60.80;;;;;;5092378;28;20098;-73
2022/05/23 05:30:26;;;;;;;2.63;2.28;;;17.90;60.60;;;;;;5092199;28;20468;-74
2022/05/23 05:33:01;;;;;;;8.18;2.78;;;17.90;61.00;;;;;;5092496;28;20090;-72
2022/05/23 05:35:33;;;;;;;4.72;2.10;;;18.00;61.20;;;;;;5092435;28;20486;-73
2022/05/23 05:38:08;;;;;;;4.97;2.20;;;18.00;61.70;;;;;;5092677;28;20036;-73
2022/05/23 05:40:36;;;;;;;8.37;2.00;;;18.00;61.70;;;;;;5096713;28;20023;-74
2022/05/23 05:43:10;;;;;;;2.28;1.77;;;18.00;61.80;;;;;;5096803;28;20059;-74
2022/05/23 05:45:49;;;;;;;7.05;2.42;;;18.10;62.00;;;;;;5096836;28;20030;-74
2022/05/23 05:48:16;;;;;;;4.40;2.20;;;18.10;61.60;;;;;;5096814;28;20031;-73
2022/05/23 05:50:43;;;;;;;5.30;2.10;;;18.10;61.70;;;;;;5096434;28;20126;-73
2022/05/23 05:53:16;;;;;;;11.40;3.03;;;18.00;61.90;;;;;;5077649;28;20423;-74
2022/05/23 05:55:42;;;;;;;5.82;2.40;;;17.90;62.80;;;;;;5096399;28;20027;-74
2022/05/23 05:58:09;;;;;;;4.53;2.10;;;17.90;63.50;;;;;;5096439;28;20055;-75
2022/05/23 06:00:35;;;;;;;4.38;2.30;;;17.90;62.40;;;;;;5096449;28;20032;-74
2022/05/23 06:03:00;;;;;;;6.30;1.90;;;17.90;62.60;;;;;;5095864;28;20020;-74
2022/05/23 06:05:27;;;;;;;6.25;2.33;;;18.00;62.90;;;;;;5094923;28;20031;-74
2022/05/23 06:13:21;;;;;;;5.95;2.50;;;18.00;63.30;;;;;;5095974;28;20035;-75
2022/05/23 06:15:46;;;;;;;4.50;2.42;;;18.10;63.30;;;;;;5077449;28;20020;-76
2022/05/23 06:18:12;;;;;;;2.80;2.08;;;18.20;63.40;;;;;;5077756;28;20500;-73
2022/05/23 06:20:39;;;;;;;5.07;2.38;;;18.30;63.60;;;;;;5078030;28;20089;-74
2022/05/23 06:23:06;;;;;;;5.30;2.60;;;18.30;64.70;;;;;;5077798;28;20044;-73
2022/05/23 06:25:32;;;;;;;4.82;2.00;;;18.40;65.30;;;;;;5077844;28;20043;-73
2022/05/23 06:27:58;;;;;;;3.55;1.98;;;18.40;65.60;;;;;;5077923;28;20020;-75
2022/05/23 06:30:24;;;;;;;4.90;2.10;;;18.50;65.60;;;;;;5078107;28;20047;-74
2022/05/23 06:32:50;;;;;;;6.38;2.70;;;18.40;65.90;;;;;;5095939;28;20035;-74
2022/05/23 06:35:16;;;;;;;3.08;1.90;;;18.30;66.60;;;;;;5077909;28;20425;-74
2022/05/23 06:37:43;;;;;;;3.58;1.90;;;18.30;66.60;;;;;;5095761;28;20751;-74
2022/05/23 06:40:13;;;;;;;4.25;2.35;;;18.10;66.90;;;;;;5095903;28;20024;-73
2022/05/23 06:42:39;;;;;;;4.35;1.90;;;18.20;66.60;;;;;;5095674;28;20373;-73
2022/05/23 06:45:06;;;;;;;3.17;2.05;;;18.20;65.20;;;;;;5095877;28;20027;-73
2022/05/23 06:47:33;;;;;;;8.52;2.00;;;18.40;64.70;;;;;;5095676;28;20028;-73
2022/05/23 06:49:58;;;;;;;6.70;2.30;;;18.60;63.50;;;;;;5094803;28;20465;-74
2022/05/23 06:52:24;;;;;;;5.95;2.35;;;19.00;63.10;;;;;;5095578;28;20103;-74
2022/05/23 06:54:50;;;;;;;4.05;2.28;;;19.30;62.10;;;;;;5095551;28;20028;-73
2022/05/23 06:57:16;;;;;;;6.13;2.30;;;19.40;61.50;;;;;;5095364;28;20047;-73
2022/05/23 06:59:41;;;;;;;5.85;2.40;;;19.60;60.50;;;;;;5094136;28;20028;-75
2022/05/23 07:02:09;;;;;;;7.75;2.15;;;19.70;59.80;;;;;;5095540;28;20472;-74
2022/05/23 07:12:47;;;;;;;3.55;2.17;;;20.30;59.00;;;;;;5095440;28;20027;-77
2022/05/23 07:15:13;;;;;;;4.75;2.20;;;20.30;58.60;;;;;;5095227;28;20534;-75
2022/05/23 07:17:38;;;;;;;5.45;2.40;;;20.30;58.90;;;;;;5095171;28;20099;-75
2022/05/23 07:20:05;;;;;;;6.38;2.63;;;20.40;57.90;;;;;;5076645;28;20081;-79
2022/05/23 07:22:32;;;;;;;5.30;2.30;;;20.60;57.50;;;;;;5094624;28;20044;-76
2022/05/23 07:24:58;;;;;;;6.10;2.03;;;20.70;57.10;;;;;;5094841;28;20044;-77
2022/05/23 07:27:26;;;;;;;4.57;2.13;;;20.80;56.50;;;;;;5094813;28;20069;-76
2022/05/23 07:29:52;;;;;;;5.45;2.00;;;20.70;57.00;;;;;;5094866;28;20380;-76
2022/05/23 07:32:17;;;;;;;3.83;2.30;;;20.70;56.70;;;;;;5076235;28;20027;-76
2022/05/23 07:34:44;;;;;;;4.22;2.10;;;20.70;56.60;;;;;;5094613;28;20028;-76
2022/05/23 07:37:10;;;;;;;5.55;2.50;;;20.70;56.60;;;;;;5094610;28;20422;-76
2022/05/23 07:39:37;;;;;;;8.80;2.10;;;20.80;57.10;;;;;;5093974;28;20384;-76
2022/05/23 07:42:03;;;;;;;6.05;2.42;;;20.90;57.00;;;;;;5094217;28;20032;-77
2022/05/23 07:44:29;;;;;;;6.90;2.40;;;21.00;56.60;;;;;;5093962;28;20524;-75
2022/05/23 07:46:55;;;;;;;5.20;2.33;;;21.00;56.10;;;;;;5094280;28;20048;-75
2022/05/23 07:49:20;;;;;;;5.53;2.20;;;21.20;55.50;;;;;;5094260;28;20020;-76
2022/05/23 07:51:46;;;;;;;4.28;2.17;;;21.30;55.10;;;;;;5094004;28;20025;-77
2022/05/23 08:02:24;;;;;;;2.72;2.00;;;21.90;53.70;;;;;;5092996;28;20586;-76
2022/05/23 08:04:50;;;;;;;5.03;2.47;;;22.00;53.60;;;;;;5093758;28;20123;-75
2022/05/23 08:07:15;;;;;;;3.67;1.98;;;22.00;53.00;;;;;;5094019;28;20020;-75
2022/05/23 08:09:41;;;;;;;3.45;1.80;;;22.10;52.80;;;;;;5093889;28;20086;-76
2022/05/23 08:12:09;;;;;;;2.72;2.05;;;22.10;52.40;;;;;;5075139;28;20464;-76
2022/05/23 08:14:34;;;;;;;5.75;2.13;;;22.20;52.00;;;;;;5093647;28;20377;-77
2022/05/23 08:17:00;;;;;;;4.10;1.92;;;22.20;51.80;;;;;;5093390;28;20028;-77
2022/05/23 08:19:26;;;;;;;7.57;2.35;;;22.20;52.20;;;;;;5093680;28;20464;-77
2022/05/23 08:21:55;;;;;;;5.53;2.25;;;22.20;53.00;;;;;;5093512;28;20048;-76
2022/05/23 08:24:21;;;;;;;3.08;2.10;;;22.30;52.20;;;;;;5093577;28;20035;-76
2022/05/23 08:26:46;;;;;;;3.42;1.92;;;22.40;51.90;;;;;;5093549;28;20016;-76
2022/05/23 08:29:12;;;;;;;4.80;2.40;;;22.40;52.10;;;;;;5093489;28;20387;-76
2022/05/23 08:31:39;;;;;;;4.13;2.15;;;22.30;52.50;;;;;;5093271;28;20024;-76
2022/05/23 08:34:05;;;;;;;4.88;2.15;;;22.30;53.20;;;;;;5093253;28;20020;-76
2022/05/23 08:36:31;;;;;;;5.80;2.60;;;22.40;52.40;;;;;;5091904;28;20016;-76
2022/05/23 08:38:57;;;;;;;4.43;2.13;;;22.40;51.70;;;;;;5093190;28;20173;-74
2022/05/23 08:41:32;;;;;;;4.38;2.20;;;22.50;50.70;;;;;;5093109;28;20464;-76
2022/05/23 08:44:29;;;;;;;4.05;2.22;;;22.50;52.20;;;;;;5092941;28;20123;-77
2022/05/23 08:46:54;;;;;;;5.07;2.63;;;22.60;51.80;;;;;;5093281;28;20453;-77
2022/05/23 08:49:39;;;;;;;5.30;2.28;;;22.70;50.00;;;;;;5093221;28;20020;-77
2022/05/23 08:52:25;;;;;;;3.85;2.08;;;22.80;49.90;;;;;;5093225;28;20362;-75
2022/05/23 08:55:01;;;;;;;5.28;2.38;;;22.90;50.50;;;;;;5074880;28;20067;-74
2022/05/23 08:57:52;;;;;;;4.00;2.22;;;22.90;50.10;;;;;;5092992;28;20116;-74
2022/05/23 09:00:25;;;;;;;5.88;2.78;;;22.80;50.10;;;;;;5093137;28;20038;-74
2022/05/23 09:03:23;;;;;;;6.57;2.30;;;22.70;50.40;;;;;;5092628;28;20023;-74
2022/05/23 09:05:57;;;;;;;4.22;2.03;;;22.50;51.20;;;;;;5074549;28;20050;-74
2022/05/23 09:08:26;;;;;;;7.05;2.53;;;22.40;51.60;;;;;;5092606;28;20443;-73
2022/05/23 09:10:59;;;;;;;4.25;2.55;;;22.50;52.00;;;;;;5092755;28;20020;-74
2022/05/23 09:13:27;;;;;;;3.90;2.33;;;22.60;52.30;;;;;;5092265;28;20032;-73
2022/05/23 09:15:59;;;;;;;2.55;1.50;;;22.60;51.30;;;;;;5092652;28;20077;-74
2022/05/23 09:18:30;;;;;;;4.97;2.13;;;22.70;52.00;;;;;;5092549;28;20093;-73
2022/05/23 09:20:59;;;;;;;7.03;2.33;;;22.70;51.70;;;;;;5092438;28;20027;-74
2022/05/23 09:23:29;;;;;;;2.17;1.92;;;22.70;51.20;;;;;;5092422;28;20044;-73
2022/05/23 09:25:56;;;;;;;3.65;1.95;;;22.70;51.40;;;;;;5092696;28;20024;-73
2022/05/23 09:28:27;;;;;;;6.53;2.40;;;22.70;52.50;;;;;;5092831;28;20086;-73
2022/05/23 09:31:18;;;;;;;4.18;2.33;;;22.80;53.70;;;;;;5092647;28;20020;-72
2022/05/23 09:33:47;;;;;;;4.05;1.90;;;22.80;54.40;;;;;;5074476;28;20387;-73
2022/05/23 09:36:19;;;;;;;5.35;2.22;;;22.80;53.10;;;;;;5092526;28;20020;-73
2022/05/23 09:38:53;;;;;;;6.75;2.60;;;22.80;53.00;;;;;;5092545;28;20384;-73
2022/05/23 09:50:09;;;;;;;8.30;2.90;;;22.40;55.20;;;;;;5092733;28;20035;-73
2022/05/23 09:53:04;;;;;;;8.23;3.10;;;22.50;55.50;;;;;;5074159;28;20020;-73
2022/05/23 09:55:33;;;;;;;4.60;2.55;;;22.50;55.30;;;;;;5083647;28;20063;-73
2022/05/23 09:58:08;;;;;;;4.50;2.35;;;22.50;55.30;;;;;;5092315;28;20024;-73
2022/05/23 10:00:38;;;;;;;4.38;2.75;;;22.50;55.40;;;;;;5092330;28;20028;-73
2022/05/23 10:03:16;;;;;;;6.78;2.47;;;22.50;55.70;;;;;;5091947;28;20036;-73
2022/05/23 10:05:46;;;;;;;5.05;2.25;;;22.60;55.90;;;;;;5092021;28;20036;-73
2022/05/23 10:08:34;;;;;;;11.75;3.08;;;22.50;56.10;;;;;;5091960;28;20016;-73
2022/05/23 10:11:06;;;;;;;5.75;2.55;;;22.50;57.70;;;;;;5091563;28;20472;-74
2022/05/23 10:13:42;;;;;;;6.97;2.70;;;22.40;59.20;;;;;;5091707;28;20032;-73
2022/05/23 10:16:08;;;;;;;6.53;3.30;;;22.40;59.70;;;;;;5091824;28;20526;-74
2022/05/23 10:18:36;;;;;;;7.10;3.92;;;22.30;59.20;;;;;;5091811;28;20103;-73
2022/05/23 10:21:35;;;;;;;6.45;4.30;;;22.20;59.00;;;;;;5091455;28;20028;-74
2022/05/23 10:24:04;;;;;;;11.43;3.40;;;22.20;60.70;;;;;;5091576;28;20040;-73
2022/05/23 10:26:33;;;;;;;7.70;3.40;;;21.90;66.80;;;;;;5094288;28;20031;-73
2022/05/23 10:29:16;;;;;;;5.90;3.05;;;21.80;66.80;;;;;;5095313;28;20016;-73
2022/05/23 10:31:56;;;;;;;16.05;5.18;;;21.70;68.10;;;;;;5095496;28;20031;-73
2022/05/23 10:34:37;;;;;;;16.70;5.82;;;21.00;74.00;;;;;;5095304;28;20086;-71
2022/05/23 10:37:06;;;;;;;16.90;5.15;;;20.20;78.50;;;;;;5086683;28;20036;-71
2022/05/23 10:42:42;;;;;;;12.20;4.57;;;19.20;79.90;;;;;;5074684;28;20044;-73
2022/05/23 10:45:32;;;;;;;14.23;5.13;;;18.80;84.40;;;;;;5074485;28;20044;-73
2022/05/23 10:48:35;;;;;;;18.23;5.57;;;18.60;83.20;;;;;;5074611;28;20060;-72
2022/05/23 10:51:14;;;;;;;14.65;4.97;;;18.50;81.80;;;;;;5074372;28;20094;-72
2022/05/23 10:54:02;;;;;;;9.63;4.03;;;18.30;84.50;;;;;;5074184;28;20036;-72
2022/05/23 10:57:02;;;;;;;10.18;3.03;;;17.90;83.50;;;;;;5074109;28;20025;-71
2022/05/23 10:59:51;;;;;;;12.82;3.65;;;17.70;79.80;;;;;;5074572;28;20477;-72
2022/05/23 11:02:38;;;;;;;7.75;2.92;;;17.70;82.00;;;;;;5074150;28;20028;-73
2022/05/23 11:05:32;;;;;;;9.15;3.03;;;17.70;83.40;;;;;;5073822;28;20033;-72
2022/05/23 11:08:16;;;;;;;7.43;3.22;;;17.50;84.20;;;;;;5074340;28;20051;-72
2022/05/23 11:11:08;;;;;;;11.90;3.53;;;17.50;84.60;;;;;;5063774;28;20028;-73
2022/05/23 11:13:58;;;;;;;6.75;3.67;;;17.40;84.50;;;;;;5071349;28;20168;-74
2022/05/23 11:16:49;;;;;;;9.75;3.42;;;17.50;86.50;;;;;;5074604;28;20030;-75
2022/05/23 11:19:32;;;;;;;6.85;2.78;;;17.60;85.10;;;;;;5074442;28;20111;-75
2022/05/23 11:22:20;;;;;;;7.30;3.03;;;17.70;84.10;;;;;;5074251;28;20048;-75
2022/05/23 11:25:12;;;;;;;10.32;3.47;;;17.70;82.40;;;;;;5074128;28;20036;-74
2022/05/23 11:36:09;;;;;;;10.25;4.82;;;17.20;81.70;;;;;;5073698;28;20028;-74
2022/05/23 11:38:41;;;;;;;8.07;3.50;;;17.50;81.40;;;;;;5055757;28;20185;-74
2022/05/23 11:41:11;;;;;;;5.15;2.63;;;17.70;82.50;;;;;;5074035;28;20025;-74
2022/05/23 11:43:37;;;;;;;5.90;2.30;;;17.80;81.20;;;;;;5073841;28;20105;-74
2022/05/23 11:46:11;;;;;;;6.70;2.45;;;17.90;80.00;;;;;;5073947;28;20025;-74
2022/05/23 11:48:52;;;;;;;7.32;2.85;;;18.10;80.60;;;;;;5073893;28;20028;-73
2022/05/23 11:51:23;;;;;;;8.52;3.10;;;18.20;81.60;;;;;;5073445;28;20024;-74
2022/05/23 11:54:08;;;;;;;9.75;3.10;;;18.20;82.50;;;;;;5073626;28;20146;-75
2022/05/23 11:56:44;;;;;;;7.00;2.85;;;18.50;82.90;;;;;;5074126;28;20162;-74
2022/05/23 11:59:30;;;;;;;7.18;2.45;;;18.70;80.60;;;;;;5074151;28;20381;-74
2022/05/23 12:02:08;;;;;;;5.95;2.20;;;18.90;80.00;;;;;;5073085;28;20047;-74
2022/05/23 12:04:56;;;;;;;9.00;2.58;;;19.20;78.90;;;;;;5073510;28;20036;-75
2022/05/23 12:07:31;;;;;;;6.75;2.30;;;19.40;78.40;;;;;;5033916;28;20032;-75
2022/05/23 12:10:21;;;;;;;6.97;2.67;;;19.50;78.20;;;;;;5073690;28;20039;-75
2022/05/23 12:12:49;;;;;;;11.27;3.25;;;19.70;77.00;;;;;;5073726;28;20735;-74
2022/05/23 12:15:42;;;;;;;8.27;2.50;;;19.90;77.70;;;;;;5073354;28;20051;-74
2022/05/23 12:18:12;;;;;;;4.85;2.38;;;20.20;78.00;;;;;;5073454;28;20020;-74
2022/05/23 12:20:52;;;;;;;5.68;2.58;;;20.60;78.10;;;;;;5090085;28;20512;-74
2022/05/23 12:23:41;;;;;;;6.07;2.40;;;21.00;75.70;;;;;;5093703;28;20056;-73
2022/05/23 12:26:10;;;;;;;8.80;2.65;;;21.30;72.20;;;;;;5093573;28;20150;-75
2022/05/23 12:28:58;;;;;;;15.32;2.65;;;21.70;70.80;;;;;;5093425;28;20031;-74
2022/05/23 12:31:27;;;;;;;7.25;2.10;;;22.10;67.90;;;;;;5093406;28;20024;-74
2022/05/23 12:34:02;;;;;;;10.48;2.80;;;22.50;67.70;;;;;;5093626;28;20024;-74
2022/05/23 12:36:30;;;;;;;6.60;1.83;;;22.80;64.40;;;;;;5093527;28;20028;-75
2022/05/23 12:39:25;;;;;;;4.90;1.88;;;23.20;64.20;;;;;;5093529;28;20118;-75
2022/05/23 12:42:09;;;;;;;7.90;2.20;;;23.60;64.00;;;;;;5087724;28;20040;-74
2022/05/23 12:45:01;;;;;;;5.60;2.10;;;24.00;62.30;;;;;;5075047;28;20043;-75
2022/05/23 12:47:46;;;;;;;6.60;2.45;;;24.20;59.50;;;;;;5092892;28;20020;-75
2022/05/23 12:50:43;;;;;;;9.60;2.50;;;24.30;56.80;;;;;;5075030;28;20473;-75
2022/05/23 12:53:46;;;;;;;9.82;2.53;;;24.70;55.10;;;;;;5075085;28;20382;-75
2022/05/23 12:56:37;;;;;;;6.35;2.03;;;25.00;53.90;;;;;;5092911;28;20103;-75
2022/05/23 12:59:23;;;;;;;10.05;3.42;;;25.30;54.60;;;;;;5093011;28;20475;-75
2022/05/23 13:01:56;;;;;;;9.98;2.40;;;25.60;53.80;;;;;;5091877;28;20021;-75
2022/05/23 13:04:53;;;;;;;8.80;2.60;;;26.00;54.00;;;;;;5092664;28;20072;-75
2022/05/23 13:07:32;;;;;;;6.55;2.05;;;26.30;51.60;;;;;;5076784;28;20032;-76
2022/05/23 13:10:06;;;;;;;7.65;2.38;;;26.60;49.10;;;;;;5074740;28;20031;-79
2022/05/23 13:12:55;;;;;;;6.95;2.05;;;26.80;47.90;;;;;;5093010;28;20020;-73
2022/05/23 13:15:27;;;;;;;7.93;2.40;;;26.90;46.70;;;;;;5092705;28;20028;-76
2022/05/23 13:17:53;;;;;;;4.75;2.35;;;26.90;46.20;;;;;;5092649;28;20027;-75
2022/05/23 13:23:16;;;;;;;14.23;6.38;;;27.40;44.20;;;;;;5075283;28;20519;-76
2022/05/23 13:25:43;;;;;;;8.90;2.70;;;27.50;43.90;;;;;;5054568;28;20116;-76
2022/05/23 13:28:11;;;;;;;8.15;2.50;;;27.70;44.00;;;;;;5054933;28;20116;-75
2022/05/23 13:30:44;;;;;;;6.88;2.33;;;28.00;44.40;;;;;;5059763;28;20397;-75
2022/05/23 13:33:20;;;;;;;6.07;2.28;;;28.20;44.30;;;;;;5066328;28;20026;-75
2022/05/23 13:35:52;;;;;;;5.97;2.00;;;28.40;41.60;;;;;;5071940;28;20055;-76
2022/05/23 13:38:27;;;;;;;7.50;2.20;;;28.50;41.70;;;;;;5071879;28;20068;-76
2022/05/23 13:41:01;;;;;;;5.57;2.35;;;28.60;40.90;;;;;;5053784;28;20025;-75
2022/05/23 13:43:42;;;;;;;5.18;2.30;;;28.60;40.10;;;;;;5057459;28;20124;-75
2022/05/23 13:46:27;;;;;;;7.40;2.45;;;28.70;40.50;;;;;;5072890;28;20100;-77
2022/05/23 13:49:00;;;;;;;8.63;2.70;;;28.80;40.60;;;;;;5072835;28;20275;-77
2022/05/23 13:51:44;;;;;;;10.15;2.65;;;28.90;38.50;;;;;;5072329;28;20024;-76
2022/05/23 13:54:16;;;;;;;8.40;3.08;;;28.60;39.70;;;;;;5072565;28;20024;-75
2022/05/23 13:56:47;;;;;;;9.88;3.30;;;28.40;40.30;;;;;;5072457;28;20021;-74
2022/05/23 13:59:17;;;;;;;8.52;3.33;;;28.10;40.10;;;;;;5073213;28;20021;-75
2022/05/23 14:01:49;;;;;;;7.97;3.08;;;27.80;40.10;;;;;;5076215;28;20031;-75
2022/05/23 14:04:23;;;;;;;9.07;3.20;;;27.50;41.50;;;;;;5057865;28;20497;-75
2022/05/23 14:06:54;;;;;;;9.32;3.70;;;27.10;42.80;;;;;;5076084;28;20024;-75
2022/05/23 14:09:21;;;;;;;9.85;4.10;;;26.90;45.20;;;;;;5076348;28;20073;-75
2022/05/23 14:11:56;;;;;;;8.40;3.15;;;26.40;46.00;;;;;;5075895;28;20027;-76
2022/05/23 14:14:54;;;;;;;9.25;3.30;;;26.20;47.50;;;;;;5075961;28;20024;-75